createdAt,value
2023-05-19T00:00:10.539Z,25.80
2023-05-19T00:02:12.103Z,25.81
2023-05-19T00:04:14.642Z,25.82
2023-05-19T00:06:16.303Z,25.82
2023-05-19T00:08:18.871Z,25.82
2023-05-19T00:10:20.706Z,25.81
2023-05-19T00:12:22.289Z,25.81
2023-05-19T00:14:23.908Z,25.81
2023-05-19T00:16:26.470Z,25.80
2023-05-19T00:18:29.728Z,25.81
2023-05-19T00:20:31.559Z,25.81
2023-05-19T00:22:33.209Z,25.83
2023-05-19T00:24:34.679Z,25.83
2023-05-19T00:26:36.231Z,25.82
2023-05-19T00:28:37.858Z,25.84
2023-05-19T00:30:39.365Z,25.84
2023-05-19T00:32:40.922Z,25.84
2023-05-19T00:34:42.726Z,25.83
2023-05-19T00:36:44.313Z,25.83
2023-05-19T00:38:45.929Z,25.84
2023-05-19T00:40:47.571Z,25.82
2023-05-19T00:42:49.151Z,25.84
2023-05-19T00:44:50.839Z,25.83
2023-05-19T00:46:52.461Z,25.83
2023-05-19T00:48:54.028Z,25.84
2023-05-19T00:51:01.922Z,25.85
2023-05-19T00:53:03.398Z,25.86
2023-05-19T00:55:05.539Z,25.87
2023-05-19T00:57:07.324Z,25.86
2023-05-19T00:59:08.827Z,25.86
2023-05-19T01:01:12.063Z,25.86
2023-05-19T01:03:15.298Z,25.86
2023-05-19T01:05:17.195Z,25.83
2023-05-19T01:07:19.951Z,25.85
2023-05-19T01:09:22.567Z,25.75
2023-05-19T01:11:24.103Z,25.85
2023-05-19T01:13:26.329Z,25.84
2023-05-19T01:15:28.653Z,25.85
2023-05-19T01:17:34.399Z,25.86
2023-05-19T01:19:51.030Z,25.86
2023-05-19T01:22:13.045Z,25.87
2023-05-19T01:24:14.865Z,25.86
2023-05-19T01:26:28.717Z,25.86
2023-05-19T01:28:33.181Z,25.85
2023-05-19T01:30:41.629Z,25.85
2023-05-19T01:32:44.614Z,25.84
2023-05-19T01:34:47.114Z,25.82
2023-05-19T01:36:49.924Z,25.85
2023-05-19T01:38:52.353Z,25.85
2023-05-19T01:40:54.464Z,25.83
2023-05-19T01:42:57.875Z,25.85
2023-05-19T01:45:00.107Z,25.86
2023-05-19T01:47:02.463Z,25.85
2023-05-19T01:49:04.448Z,25.85
2023-05-19T01:51:05.891Z,25.85
2023-05-19T01:53:07.506Z,25.83
2023-05-19T01:55:09.437Z,25.83
2023-05-19T01:57:11.502Z,25.83
2023-05-19T01:59:22.522Z,25.82
2023-05-19T02:01:44.530Z,25.82
2023-05-19T02:04:01.316Z,25.82
2023-05-19T02:06:08.639Z,25.83
2023-05-19T02:08:17.588Z,25.83
2023-05-19T02:10:24.179Z,25.83
2023-05-19T02:12:32.900Z,25.84
2023-05-19T02:14:40.303Z,25.84
2023-05-19T02:16:44.267Z,25.83
2023-05-19T02:18:46.340Z,25.83
2023-05-19T02:20:48.570Z,25.83
2023-05-19T02:22:50.443Z,25.83
2023-05-19T02:24:52.153Z,25.82
2023-05-19T02:26:53.931Z,25.82
2023-05-19T02:28:55.821Z,25.83
2023-05-19T02:30:57.321Z,25.83
2023-05-19T02:32:58.822Z,25.83
2023-05-19T02:35:00.462Z,25.85
2023-05-19T02:37:02.053Z,25.84
2023-05-19T02:39:03.946Z,25.86
2023-05-19T02:41:05.635Z,25.75
2023-05-19T02:43:08.034Z,25.74
2023-05-19T02:45:09.759Z,25.85
2023-05-19T02:47:11.275Z,25.84
2023-05-19T02:49:12.831Z,25.83
2023-05-19T02:51:14.301Z,25.82
2023-05-19T02:53:15.917Z,25.83
2023-05-19T02:55:17.710Z,25.82
2023-05-19T02:57:19.321Z,25.82
2023-05-19T02:59:20.763Z,25.84
2023-05-19T03:01:23.238Z,25.83
2023-05-19T03:03:24.999Z,25.85
2023-05-19T03:05:26.665Z,25.86
2023-05-19T03:07:28.152Z,25.85
2023-05-19T03:09:29.583Z,25.84
2023-05-19T03:11:31.262Z,25.85
2023-05-19T03:13:33.024Z,25.77
2023-05-19T03:15:35.193Z,25.82
2023-05-19T03:17:37.065Z,25.83
2023-05-19T03:19:38.727Z,25.82
2023-05-19T03:21:40.594Z,25.82
2023-05-19T03:23:42.163Z,25.83
2023-05-19T03:25:43.749Z,25.83
2023-05-19T03:27:45.375Z,25.84
2023-05-19T03:29:46.826Z,25.83
2023-05-19T03:31:48.312Z,25.85
2023-05-19T03:33:49.848Z,25.84
2023-05-19T03:35:53.074Z,25.83
2023-05-19T03:37:54.661Z,25.81
2023-05-19T03:39:56.202Z,25.81
2023-05-19T03:41:57.770Z,25.81
2023-05-19T03:43:59.307Z,25.80
2023-05-19T03:46:02.145Z,25.82
2023-05-19T03:48:03.957Z,25.82
2023-05-19T03:50:05.780Z,25.82
2023-05-19T03:52:07.312Z,25.82
2023-05-19T03:54:08.872Z,25.82
2023-05-19T03:56:13.661Z,25.83
2023-05-19T03:58:15.921Z,25.82
2023-05-19T04:00:18.056Z,25.81
2023-05-19T04:02:19.556Z,25.81
2023-05-19T04:04:21.724Z,25.80
2023-05-19T04:06:23.470Z,25.80
2023-05-19T04:08:25.002Z,25.79
2023-05-19T04:10:26.693Z,25.79
2023-05-19T04:12:28.230Z,25.79
2023-05-19T04:14:29.747Z,25.80
2023-05-19T04:16:31.600Z,25.81
2023-05-19T04:18:33.181Z,25.80
2023-05-19T04:20:34.879Z,25.81
2023-05-19T04:22:36.561Z,25.81
2023-05-19T04:24:38.066Z,25.81
2023-05-19T04:26:45.788Z,25.80
2023-05-19T04:28:48.290Z,25.79
2023-05-19T04:30:50.596Z,25.78
2023-05-19T04:32:52.190Z,25.79
2023-05-19T04:34:53.769Z,25.78
2023-05-19T04:36:55.534Z,25.79
2023-05-19T04:39:02.381Z,25.79
2023-05-19T04:41:04.283Z,25.79
2023-05-19T04:43:07.315Z,25.80
2023-05-19T04:45:09.562Z,25.80
2023-05-19T04:47:11.434Z,25.79
2023-05-19T04:49:14.040Z,25.80
2023-05-19T04:51:15.760Z,25.80
2023-05-19T04:53:17.761Z,25.80
2023-05-19T04:55:19.826Z,25.78
2023-05-19T04:57:21.416Z,25.78
2023-05-19T04:59:23.268Z,25.77
2023-05-19T05:01:26.278Z,25.78
2023-05-19T05:03:28.012Z,25.77
2023-05-19T05:05:29.540Z,25.79
2023-05-19T05:07:32.534Z,25.79
2023-05-19T05:09:34.233Z,25.79
2023-05-19T05:11:36.054Z,25.79
2023-05-19T05:13:37.720Z,25.80
2023-05-19T05:15:39.440Z,25.79
2023-05-19T05:17:41.188Z,25.78
2023-05-19T05:19:43.105Z,25.78
2023-05-19T05:21:44.748Z,25.77
2023-05-19T05:23:46.362Z,25.77
2023-05-19T05:25:48.142Z,25.76
2023-05-19T05:27:49.954Z,25.76
2023-05-19T05:29:51.740Z,25.77
2023-05-19T05:31:53.233Z,25.76
2023-05-19T05:33:54.876Z,25.76
2023-05-19T05:35:56.378Z,25.77
2023-05-19T05:37:57.811Z,25.77
2023-05-19T05:39:59.291Z,25.77
2023-05-19T05:42:01.047Z,25.76
2023-05-19T05:44:02.840Z,25.65
2023-05-19T05:46:04.545Z,25.75
2023-05-19T05:48:06.440Z,25.73
2023-05-19T05:50:09.221Z,25.74
2023-05-19T05:52:11.934Z,25.73
2023-05-19T05:54:16.959Z,25.74
2023-05-19T05:56:18.758Z,25.73
2023-05-19T05:58:21.232Z,25.73
2023-05-19T06:00:22.984Z,25.73
2023-05-19T06:02:24.784Z,25.74
2023-05-19T06:04:26.487Z,25.73
2023-05-19T06:06:27.999Z,25.73
2023-05-19T06:08:29.482Z,25.73
2023-05-19T06:10:31.925Z,25.71
2023-05-19T06:12:34.323Z,25.72
2023-05-19T06:14:35.820Z,25.71
2023-05-19T06:16:37.357Z,25.70
2023-05-19T06:18:39.070Z,25.70
2023-05-19T06:20:40.899Z,25.70
2023-05-19T06:22:42.427Z,25.70
2023-05-19T06:24:43.976Z,25.71
2023-05-19T06:26:45.550Z,25.71
2023-05-19T06:28:47.022Z,25.70
2023-05-19T06:30:48.483Z,25.71
2023-05-19T06:32:50.341Z,25.71
2023-05-19T06:34:54.835Z,25.70
2023-05-19T06:36:56.285Z,25.70
2023-05-19T06:38:57.756Z,25.69
2023-05-19T06:40:59.227Z,25.68
2023-05-19T06:43:00.828Z,25.67
2023-05-19T06:45:02.398Z,25.68
2023-05-19T06:47:04.044Z,25.69
2023-05-19T06:49:05.823Z,25.70
2023-05-19T06:51:07.345Z,25.70
2023-05-19T06:53:08.953Z,25.70
2023-05-19T06:55:10.488Z,25.71
2023-05-19T06:57:11.958Z,25.70
2023-05-19T06:59:13.498Z,25.70
2023-05-19T07:01:15.117Z,25.70
2023-05-19T07:03:16.838Z,25.70
2023-05-19T07:05:18.833Z,25.52
2023-05-19T07:07:20.425Z,25.70
2023-05-19T07:09:21.903Z,25.70
2023-05-19T07:11:23.571Z,25.70
2023-05-19T07:13:27.209Z,25.73
2023-05-19T07:15:29.092Z,25.73
2023-05-19T07:17:30.694Z,25.74
2023-05-19T07:19:32.246Z,25.74
2023-05-19T07:21:33.858Z,25.76
2023-05-19T07:23:35.604Z,25.65
2023-05-19T07:25:37.057Z,25.76
2023-05-19T07:27:38.650Z,25.76
2023-05-19T07:29:40.105Z,25.78
2023-05-19T07:31:41.669Z,25.77
2023-05-19T07:33:43.201Z,25.79
2023-05-19T07:35:45.498Z,25.79
2023-05-19T07:37:46.999Z,25.81
2023-05-19T07:39:48.666Z,25.81
2023-05-19T07:41:54.163Z,25.84
2023-05-19T07:43:55.921Z,25.84
2023-05-19T07:45:57.459Z,25.86
2023-05-19T07:47:59.026Z,25.87
2023-05-19T07:50:00.730Z,25.88
2023-05-19T07:52:02.222Z,25.88
2023-05-19T07:54:03.880Z,25.87
2023-05-19T07:56:05.812Z,25.87
2023-05-19T07:58:07.299Z,25.87
2023-05-19T08:00:10.042Z,25.88
2023-05-19T08:02:11.655Z,25.90
2023-05-19T08:04:13.397Z,25.90
2023-05-19T08:06:15.019Z,25.92
2023-05-19T08:08:19.831Z,25.93
2023-05-19T08:10:21.344Z,25.95
2023-05-19T08:12:22.815Z,25.95
2023-05-19T08:14:24.354Z,25.96
2023-05-19T08:16:25.925Z,25.96
2023-05-19T08:18:27.377Z,25.96
2023-05-19T08:20:28.848Z,25.96
2023-05-19T08:22:30.330Z,25.96
2023-05-19T08:24:33.882Z,25.97
2023-05-19T08:26:37.572Z,25.98
2023-05-19T08:28:39.567Z,25.99
2023-05-19T08:30:41.109Z,26.00
2023-05-19T08:32:42.628Z,26.01
2023-05-19T08:34:44.180Z,26.02
2023-05-19T08:36:46.036Z,26.02
2023-05-19T08:38:47.630Z,26.02
2023-05-19T08:40:49.453Z,26.02
2023-05-19T08:42:51.350Z,26.03
2023-05-19T08:44:52.931Z,26.03
2023-05-19T08:46:55.125Z,26.03
2023-05-19T08:49:04.760Z,26.05
2023-05-19T08:51:09.004Z,26.04
2023-05-19T08:53:24.997Z,26.05
2023-05-19T08:55:41.217Z,26.06
2023-05-19T08:57:43.521Z,26.07
2023-05-19T08:59:45.978Z,26.08
2023-05-19T09:01:48.943Z,26.09
2023-05-19T09:03:51.762Z,26.10
2023-05-19T09:05:53.594Z,26.11
2023-05-19T09:07:55.314Z,26.11
2023-05-19T09:09:56.967Z,26.11
2023-05-19T09:11:58.629Z,26.09
2023-05-19T09:14:00.397Z,26.10
2023-05-19T09:16:03.708Z,26.11
2023-05-19T09:18:12.263Z,26.13
2023-05-19T09:20:14.433Z,26.12
2023-05-19T09:22:16.374Z,26.13
2023-05-19T09:24:17.882Z,26.14
2023-05-19T09:26:20.715Z,26.15
2023-05-19T09:28:25.524Z,26.15
2023-05-19T09:30:27.091Z,26.17
2023-05-19T09:32:28.923Z,26.08
2023-05-19T09:34:30.706Z,26.16
2023-05-19T09:36:32.190Z,26.16
2023-05-19T09:38:34.861Z,26.15
2023-05-19T09:40:36.365Z,26.15
2023-05-19T09:42:38.625Z,26.15
2023-05-19T09:44:41.398Z,26.17
2023-05-19T09:46:49.818Z,26.17
2023-05-19T09:48:51.474Z,26.17
2023-05-19T09:50:53.867Z,26.18
2023-05-19T09:52:55.989Z,26.21
2023-05-19T09:54:57.523Z,26.21
2023-05-19T09:57:00.065Z,26.21
2023-05-19T09:59:03.533Z,26.22
2023-05-19T10:01:05.689Z,26.22
2023-05-19T10:03:09.201Z,26.20
2023-05-19T10:05:11.320Z,26.20
2023-05-19T10:07:14.715Z,26.20
2023-05-19T10:09:16.664Z,26.21
2023-05-19T10:11:18.271Z,26.22
2023-05-19T10:13:21.437Z,26.22
2023-05-19T10:15:23.506Z,26.22
2023-05-19T10:17:25.204Z,26.23
2023-05-19T10:19:27.673Z,26.22
2023-05-19T10:21:29.577Z,26.23
2023-05-19T10:23:31.217Z,26.24
2023-05-19T10:25:34.195Z,26.25
2023-05-19T10:27:37.466Z,26.24
2023-05-19T10:29:40.536Z,26.22
2023-05-19T10:31:42.364Z,26.22
2023-05-19T10:33:55.750Z,26.22
2023-05-19T10:36:15.814Z,26.22
2023-05-19T10:38:26.706Z,26.24
2023-05-19T10:40:30.235Z,26.24
2023-05-19T10:42:35.004Z,26.25
2023-05-19T10:44:55.109Z,26.26
2023-05-19T10:46:57.052Z,26.27
2023-05-19T10:48:59.267Z,26.25
2023-05-19T10:51:00.926Z,26.25
2023-05-19T10:53:02.667Z,26.26
2023-05-19T10:55:04.914Z,26.25
2023-05-19T10:57:07.140Z,26.26
2023-05-19T10:59:29.653Z,26.26
2023-05-19T11:01:35.299Z,26.27
2023-05-19T11:03:44.553Z,26.28
2023-05-19T11:05:46.498Z,26.30
2023-05-19T11:07:54.974Z,26.30
2023-05-19T11:09:56.512Z,26.31
2023-05-19T11:12:03.242Z,26.33
2023-05-19T11:14:04.768Z,26.32
2023-05-19T11:16:09.430Z,26.33
2023-05-19T11:18:15.889Z,26.31
2023-05-19T11:20:22.821Z,26.31
2023-05-19T11:22:26.036Z,26.30
2023-05-19T11:24:42.745Z,26.31
2023-05-19T11:26:45.563Z,26.32
2023-05-19T11:28:47.649Z,26.32
2023-05-19T11:30:54.153Z,26.33
2023-05-19T11:32:55.719Z,26.34
2023-05-19T11:34:57.744Z,26.37
2023-05-19T11:36:59.557Z,26.37
2023-05-19T11:39:03.141Z,26.37
2023-05-19T11:41:05.001Z,26.26
2023-05-19T11:43:06.544Z,26.40
2023-05-19T11:45:08.382Z,26.40
2023-05-19T11:47:10.039Z,26.39
2023-05-19T11:49:11.523Z,26.40
2023-05-19T11:51:13.228Z,26.42
2023-05-19T11:53:15.424Z,26.42
2023-05-19T11:55:23.341Z,26.39
2023-05-19T11:57:25.095Z,26.35
2023-05-19T11:59:35.627Z,26.30
2023-05-19T12:01:37.738Z,26.27
2023-05-19T12:03:39.466Z,26.20
2023-05-19T12:05:48.181Z,26.18
2023-05-19T12:07:51.507Z,26.15
2023-05-19T12:09:56.911Z,26.00
2023-05-19T12:11:58.524Z,26.07
2023-05-19T12:14:00.988Z,26.03
2023-05-19T12:16:03.740Z,25.99
2023-05-19T12:18:05.847Z,25.93
2023-05-19T12:20:08.169Z,25.87
2023-05-19T12:22:10.409Z,25.74
2023-05-19T12:24:12.013Z,25.65
2023-05-19T12:26:13.608Z,25.60
2023-05-19T12:28:16.282Z,25.58
2023-05-19T12:30:18.560Z,25.40
2023-05-19T12:32:29.236Z,25.36
2023-05-19T12:34:31.430Z,25.33
2023-05-19T12:36:32.996Z,25.30
2023-05-19T12:38:37.305Z,25.08
2023-05-19T12:40:42.169Z,25.07
2023-05-19T12:42:48.113Z,25.08
2023-05-19T12:44:52.373Z,25.09
2023-05-19T12:46:53.903Z,25.09
2023-05-19T12:49:00.720Z,25.09
2023-05-19T12:51:02.471Z,25.05
2023-05-19T12:53:08.535Z,25.02
2023-05-19T12:55:14.129Z,24.98
2023-05-19T12:57:20.986Z,24.96
2023-05-19T12:59:37.416Z,24.84
2023-05-19T13:01:55.034Z,24.93
2023-05-19T13:03:57.196Z,24.89
2023-05-19T13:05:59.830Z,24.87
2023-05-19T13:08:04.614Z,24.87
2023-05-19T13:10:06.606Z,24.82
2023-05-19T13:12:08.129Z,24.81
2023-05-19T13:14:10.374Z,24.78
2023-05-19T13:16:11.995Z,24.73
2023-05-19T13:18:13.815Z,24.68
2023-05-19T13:20:15.330Z,24.64
2023-05-19T13:22:17.115Z,24.58
2023-05-19T13:24:18.807Z,24.58
2023-05-19T13:26:21.313Z,24.57
2023-05-19T13:28:23.353Z,24.51
2023-05-19T13:30:25.743Z,24.51
2023-05-19T13:32:27.191Z,24.49
2023-05-19T13:34:28.795Z,24.45
2023-05-19T13:36:30.343Z,24.42
2023-05-19T13:38:32.008Z,24.40
2023-05-19T13:40:34.739Z,24.38
2023-05-19T13:42:36.878Z,24.31
2023-05-19T13:44:38.508Z,24.21
2023-05-19T13:46:45.604Z,24.20
2023-05-19T13:48:48.433Z,24.21
2023-05-19T13:50:52.451Z,24.26
2023-05-19T13:52:53.918Z,24.28
2023-05-19T13:54:56.764Z,24.30
2023-05-19T13:56:58.299Z,24.30
2023-05-19T13:58:59.928Z,24.15
2023-05-19T14:01:01.499Z,24.15
2023-05-19T14:03:03.460Z,24.15
2023-05-19T14:05:06.954Z,24.15
2023-05-19T14:07:10.300Z,24.13
2023-05-19T14:09:11.954Z,24.10
2023-05-19T14:11:20.305Z,24.07
2023-05-19T14:13:32.516Z,24.05
2023-05-19T14:15:37.804Z,24.04
2023-05-19T14:17:39.676Z,23.99
2023-05-19T14:19:41.231Z,24.01
2023-05-19T14:21:42.807Z,24.02
2023-05-19T14:23:44.388Z,24.02
2023-05-19T14:25:46.138Z,23.99
2023-05-19T14:27:47.676Z,24.00
2023-05-19T14:29:49.321Z,23.94
2023-05-19T14:31:51.133Z,23.97
2023-05-19T14:33:52.850Z,23.98
2023-05-19T14:35:55.391Z,23.98
2023-05-19T14:37:57.010Z,23.98
2023-05-19T14:39:58.684Z,23.94
2023-05-19T14:42:00.198Z,23.88
2023-05-19T14:44:01.900Z,23.82
2023-05-19T14:46:03.536Z,23.78
2023-05-19T14:48:05.508Z,23.74
2023-05-19T14:50:07.755Z,23.72
2023-05-19T14:52:09.249Z,23.62
2023-05-19T14:54:10.813Z,23.63
2023-05-19T14:56:12.484Z,23.66
2023-05-19T14:58:27.502Z,23.66
2023-05-19T15:00:30.344Z,23.68
2023-05-19T15:02:32.048Z,23.71
2023-05-19T15:04:33.529Z,23.77
2023-05-19T15:06:35.044Z,23.81
2023-05-19T15:08:37.816Z,23.81
2023-05-19T15:10:39.386Z,23.63
2023-05-19T15:12:41.266Z,23.72
2023-05-19T15:14:42.868Z,23.69
2023-05-19T15:16:44.378Z,23.47
2023-05-19T15:18:46.030Z,23.44
2023-05-19T15:20:47.926Z,23.34
2023-05-19T15:22:49.478Z,23.35
2023-05-19T15:24:51.035Z,23.45
2023-05-19T15:26:52.645Z,23.53
2023-05-19T15:28:54.141Z,23.60
2023-05-19T15:30:55.735Z,23.64
2023-05-19T15:32:57.285Z,23.67
2023-05-19T15:34:58.832Z,23.56
2023-05-19T15:37:00.404Z,23.41
2023-05-19T15:39:03.552Z,23.41
2023-05-19T15:41:06.427Z,23.40
2023-05-19T15:43:07.846Z,23.40
2023-05-19T15:45:09.747Z,23.42
2023-05-19T15:47:11.247Z,23.45
2023-05-19T15:49:13.079Z,23.39
2023-05-19T15:51:14.975Z,23.11
2023-05-19T15:53:16.860Z,23.12
2023-05-19T15:55:18.503Z,23.16
2023-05-19T15:57:20.235Z,23.17
2023-05-19T15:59:21.892Z,22.98
2023-05-19T16:01:23.471Z,22.88
2023-05-19T16:03:25.341Z,22.86
2023-05-19T16:05:27.009Z,22.92
2023-05-19T16:07:28.486Z,22.98
2023-05-19T16:09:30.077Z,23.01
2023-05-19T16:11:31.634Z,22.95
2023-05-19T16:13:33.914Z,22.93
2023-05-19T16:15:35.564Z,22.86
2023-05-19T16:17:37.185Z,22.84
2023-05-19T16:19:38.718Z,22.79
2023-05-19T16:21:40.295Z,22.59
2023-05-19T16:23:41.934Z,22.60
2023-05-19T16:25:43.437Z,22.67
2023-05-19T16:27:45.143Z,22.72
2023-05-19T16:29:46.597Z,22.74
2023-05-19T16:31:48.128Z,22.73
2023-05-19T16:33:49.886Z,22.76
2023-05-19T16:35:51.455Z,22.79
2023-05-19T16:37:53.098Z,22.80
2023-05-19T16:39:54.610Z,22.83
2023-05-19T16:41:56.113Z,22.82
2023-05-19T16:43:57.683Z,22.81
2023-05-19T16:45:59.276Z,22.83
2023-05-19T16:48:00.831Z,22.89
2023-05-19T16:50:02.558Z,22.91
2023-05-19T16:52:04.129Z,22.92
2023-05-19T16:54:05.796Z,22.89
2023-05-19T16:56:08.070Z,22.91
2023-05-19T16:58:11.592Z,22.92
2023-05-19T17:00:13.305Z,22.93
2023-05-19T17:02:14.817Z,22.82
2023-05-19T17:04:16.527Z,22.71
2023-05-19T17:06:20.934Z,22.70
2023-05-19T17:08:22.446Z,22.78
2023-05-19T17:10:23.972Z,22.86
2023-05-19T17:12:25.535Z,22.97
2023-05-19T17:14:27.101Z,23.01
2023-05-19T17:16:28.881Z,23.08
2023-05-19T17:18:31.337Z,23.13
2023-05-19T17:20:33.150Z,23.15
2023-05-19T17:22:34.803Z,23.14
2023-05-19T17:24:36.525Z,23.15
2023-05-19T17:26:38.067Z,23.20
2023-05-19T17:28:39.529Z,23.23
2023-05-19T17:30:41.342Z,23.26
2023-05-19T17:32:43.084Z,23.29
2023-05-19T17:34:44.644Z,23.30
2023-05-19T17:36:46.337Z,23.30
2023-05-19T17:38:47.904Z,23.31
2023-05-19T17:40:49.491Z,23.32
2023-05-19T17:42:51.030Z,23.30
2023-05-19T17:44:52.523Z,23.31
2023-05-19T17:46:54.060Z,23.33
2023-05-19T17:48:55.803Z,23.34
2023-05-19T17:50:57.666Z,23.30
2023-05-19T17:52:59.363Z,23.32
2023-05-19T17:55:01.152Z,23.37
2023-05-19T17:57:06.515Z,23.41
2023-05-19T17:59:08.249Z,23.43
2023-05-19T18:01:09.882Z,23.42
2023-05-19T18:03:11.811Z,23.43
2023-05-19T18:05:13.732Z,23.42
2023-05-19T18:07:16.570Z,23.38
2023-05-19T18:09:19.319Z,23.31
2023-05-19T18:11:21.288Z,23.30
2023-05-19T18:13:23.629Z,23.29
2023-05-19T18:15:25.593Z,23.30
2023-05-19T18:17:27.156Z,23.32
2023-05-19T18:19:29.013Z,23.36
2023-05-19T18:21:31.359Z,23.39
2023-05-19T18:23:32.849Z,23.41
2023-05-19T18:25:34.854Z,23.44
2023-05-19T18:27:36.293Z,23.43
2023-05-19T18:29:38.149Z,23.43
2023-05-19T18:31:39.679Z,23.45
2023-05-19T18:33:41.835Z,23.45
2023-05-19T18:35:43.792Z,23.46
2023-05-19T18:37:45.318Z,23.46
2023-05-19T18:39:46.834Z,23.45
2023-05-19T18:41:48.388Z,23.46
2023-05-19T18:43:49.919Z,23.43
2023-05-19T18:45:51.379Z,23.22
2023-05-19T18:47:53.029Z,23.45
2023-05-19T18:49:54.859Z,23.46
2023-05-19T18:51:56.452Z,23.46
2023-05-19T18:53:57.991Z,23.46
2023-05-19T18:55:59.558Z,23.45
2023-05-19T18:58:01.712Z,23.46
2023-05-19T19:00:04.232Z,23.43
2023-05-19T19:02:06.384Z,23.38
2023-05-19T19:04:08.002Z,23.43
2023-05-19T19:06:09.533Z,23.49
2023-05-19T19:08:11.136Z,23.53
2023-05-19T19:10:12.798Z,23.58
2023-05-19T19:12:14.304Z,23.63
2023-05-19T19:14:15.937Z,23.68
2023-05-19T19:16:17.478Z,23.70
2023-05-19T19:18:18.997Z,23.72
2023-05-19T19:20:20.667Z,23.77
2023-05-19T19:22:22.258Z,23.80
2023-05-19T19:24:26.358Z,23.83
2023-05-19T19:26:29.019Z,23.84
2023-05-19T19:28:30.760Z,23.87
2023-05-19T19:30:32.522Z,23.88
2023-05-19T19:32:34.226Z,23.88
2023-05-19T19:34:35.834Z,23.91
2023-05-19T19:36:37.417Z,23.95
2023-05-19T19:38:38.851Z,23.95
2023-05-19T19:40:40.465Z,23.96
2023-05-19T19:42:42.035Z,23.97
2023-05-19T19:44:43.526Z,23.98
2023-05-19T19:46:45.473Z,24.00
2023-05-19T19:48:47.067Z,24.01
2023-05-19T19:50:53.409Z,24.03
2023-05-19T19:52:54.893Z,24.04
2023-05-19T19:54:57.262Z,24.06
2023-05-19T19:56:58.954Z,24.06
2023-05-19T19:59:01.376Z,24.07
2023-05-19T20:01:03.481Z,24.07
2023-05-19T20:03:05.984Z,24.09
2023-05-19T20:05:08.010Z,24.11
2023-05-19T20:07:09.531Z,24.12
2023-05-19T20:09:11.087Z,24.14
2023-05-19T20:11:12.586Z,24.14
2023-05-19T20:13:15.242Z,24.16
2023-05-19T20:15:16.762Z,24.17
2023-05-19T20:17:18.260Z,24.18
2023-05-19T20:19:19.915Z,24.20
2023-05-19T20:21:21.443Z,24.20
2023-05-19T20:23:22.952Z,24.18
2023-05-19T20:25:24.515Z,24.21
2023-05-19T20:27:25.992Z,24.20
2023-05-19T20:29:27.715Z,24.21
2023-05-19T20:31:29.201Z,24.23
2023-05-19T20:33:31.715Z,24.25
2023-05-19T20:35:33.455Z,24.27
2023-05-19T20:37:35.038Z,24.29
2023-05-19T20:39:36.579Z,24.30
2023-05-19T20:41:38.078Z,24.31
2023-05-19T20:43:39.609Z,24.31
2023-05-19T20:45:43.085Z,24.33
2023-05-19T20:47:44.602Z,24.32
2023-05-19T20:49:46.471Z,24.31
2023-05-19T20:51:48.024Z,24.32
2023-05-19T20:53:49.508Z,24.34
2023-05-19T20:55:51.119Z,24.33
2023-05-19T20:57:52.674Z,24.35
2023-05-19T20:59:54.190Z,24.34
2023-05-19T21:01:55.730Z,24.36
2023-05-19T21:03:57.204Z,24.36
2023-05-19T21:05:58.715Z,24.37
2023-05-19T21:08:00.272Z,24.38
2023-05-19T21:10:01.840Z,24.39
2023-05-19T21:12:03.479Z,24.30
2023-05-19T21:14:05.058Z,24.37
2023-05-19T21:16:07.072Z,24.37
2023-05-19T21:18:08.723Z,24.35
2023-05-19T21:20:10.472Z,24.37
2023-05-19T21:22:11.954Z,24.37
2023-05-19T21:24:13.957Z,24.37
2023-05-19T21:26:15.435Z,24.37
2023-05-19T21:28:16.931Z,24.36
2023-05-19T21:30:18.605Z,24.34
2023-05-19T21:32:20.597Z,24.32
2023-05-19T21:34:23.473Z,24.30
2023-05-19T21:36:24.920Z,24.30
2023-05-19T21:38:26.884Z,24.30
2023-05-19T21:40:28.386Z,24.27
2023-05-19T21:42:29.970Z,24.24
2023-05-19T21:44:31.987Z,24.22
2023-05-19T21:46:33.541Z,24.23
2023-05-19T21:48:35.086Z,24.21
2023-05-19T21:50:39.795Z,24.21
2023-05-19T21:52:41.353Z,24.22
2023-05-19T21:54:43.111Z,24.21
2023-05-19T21:56:44.777Z,24.19
2023-05-19T21:58:46.479Z,24.20
2023-05-19T22:00:51.603Z,24.19
2023-05-19T22:02:53.316Z,24.18
2023-05-19T22:04:55.179Z,24.18
2023-05-19T22:06:57.417Z,24.16
2023-05-19T22:09:01.125Z,24.14
2023-05-19T22:11:02.630Z,24.13
2023-05-19T22:13:04.095Z,24.13
2023-05-19T22:15:06.673Z,24.12
2023-05-19T22:17:08.196Z,24.14
2023-05-19T22:19:10.578Z,24.13
2023-05-19T22:21:12.161Z,24.15
2023-05-19T22:23:13.694Z,24.15
2023-05-19T22:25:15.264Z,24.14
2023-05-19T22:27:16.792Z,24.12
2023-05-19T22:29:19.263Z,24.12
2023-05-19T22:31:20.947Z,24.09
2023-05-19T22:33:22.386Z,24.05
2023-05-19T22:35:24.231Z,24.04
2023-05-19T22:37:25.800Z,24.04
2023-05-19T22:39:27.348Z,24.04
2023-05-19T22:41:28.916Z,24.03
2023-05-19T22:43:30.327Z,24.04
2023-05-19T22:45:32.229Z,24.06
2023-05-19T22:47:33.876Z,24.06
2023-05-19T22:49:35.767Z,24.06
2023-05-19T22:51:37.842Z,24.07
2023-05-19T22:53:39.291Z,24.06
2023-05-19T22:55:40.754Z,24.07
2023-05-19T22:57:42.276Z,24.05
2023-05-19T22:59:43.909Z,24.04
2023-05-19T23:01:47.023Z,23.86
2023-05-19T23:03:48.665Z,24.02
2023-05-19T23:05:50.175Z,24.03
2023-05-19T23:07:51.634Z,24.04
2023-05-19T23:09:53.276Z,24.04
2023-05-19T23:11:54.961Z,24.05
2023-05-19T23:13:56.816Z,24.03
2023-05-19T23:15:58.324Z,24.01
2023-05-19T23:18:01.207Z,24.01
2023-05-19T23:20:03.628Z,23.99
2023-05-19T23:22:05.352Z,23.98
2023-05-19T23:24:06.864Z,23.98
2023-05-19T23:26:08.386Z,23.98
2023-05-19T23:28:10.948Z,23.96
2023-05-19T23:30:12.445Z,23.96
2023-05-19T23:32:14.198Z,23.96
2023-05-19T23:34:15.897Z,23.95
2023-05-19T23:36:17.772Z,23.95
2023-05-19T23:38:19.237Z,23.94
2023-05-19T23:40:20.805Z,23.95
2023-05-19T23:42:22.408Z,23.95
2023-05-19T23:44:24.158Z,23.94
2023-05-19T23:46:25.844Z,23.94
2023-05-19T23:48:28.281Z,23.93
2023-05-19T23:50:29.840Z,23.92
2023-05-19T23:52:32.748Z,23.92
2023-05-19T23:54:34.507Z,23.92
2023-05-19T23:56:36.223Z,23.92
2023-05-19T23:58:37.839Z,23.94
